createdAt,value
2023-01-05T00:01:10.059Z,98465.75
2023-01-05T00:03:37.356Z,98461.88
2023-01-05T00:06:06.839Z,98464.31
2023-01-05T00:08:37.436Z,98446.78
2023-01-05T00:11:32.366Z,98453.31
2023-01-05T00:14:17.970Z,98419.78
2023-01-05T00:17:03.321Z,98449.63
2023-01-05T00:19:48.734Z,98458.22
2023-01-05T00:22:32.348Z,98444.91
2023-01-05T00:25:12.223Z,98440.19
2023-01-05T00:27:44.702Z,98441.22
2023-01-05T00:30:14.403Z,98425.25
2023-01-05T00:32:42.280Z,98429.38
2023-01-05T00:35:10.281Z,98433.66
2023-01-05T00:37:38.421Z,98411.78
2023-01-05T00:40:11.116Z,98413.59
2023-01-05T00:42:38.227Z,98419.94
2023-01-05T00:45:10.728Z,98416.69
2023-01-05T00:47:37.231Z,98425.06
2023-01-05T00:50:04.916Z,98417.88
2023-01-05T00:52:31.404Z,98415.63
2023-01-05T00:54:57.933Z,98413.16
2023-01-05T00:57:24.577Z,98401.72
2023-01-05T00:59:52.871Z,98393.50
2023-01-05T01:02:19.723Z,98409.84
2023-01-05T01:04:46.329Z,98415.34
2023-01-05T01:07:12.839Z,98414.31
2023-01-05T01:09:40.538Z,98403.47
2023-01-05T01:12:07.389Z,98390.19
2023-01-05T01:14:34.755Z,98398.94
2023-01-05T01:17:01.271Z,98403.25
2023-01-05T01:19:28.403Z,98403.84
2023-01-05T01:21:55.391Z,98396.28
2023-01-05T01:24:27.491Z,98408.94
2023-01-05T01:26:55.464Z,98404.63
2023-01-05T01:29:24.085Z,98407.53
2023-01-05T01:31:53.327Z,98412.63
2023-01-05T01:34:20.229Z,98394.25
2023-01-05T01:36:47.059Z,98403.22
2023-01-05T01:39:15.391Z,98405.28
2023-01-05T01:41:46.255Z,98410.41
2023-01-05T01:44:48.098Z,98413.47
2023-01-05T01:47:34.961Z,98417.94
2023-01-05T01:50:08.497Z,98418.56
2023-01-05T01:52:35.778Z,98417.16
2023-01-05T01:55:05.415Z,98417.59
2023-01-05T01:57:33.580Z,98404.53
2023-01-05T02:00:02.530Z,98413.47
2023-01-05T02:02:30.565Z,98395.72
2023-01-05T02:05:02.079Z,98412.25
2023-01-05T02:07:33.626Z,98403.25
2023-01-05T02:10:02.455Z,98408.56
2023-01-05T02:12:31.983Z,98417.56
2023-01-05T02:15:10.759Z,98409.94
2023-01-05T02:18:01.577Z,98419.00
2023-01-05T02:20:32.497Z,98419.19
2023-01-05T02:23:30.033Z,98420.78
2023-01-05T02:26:28.010Z,98414.88
2023-01-05T02:29:41.711Z,98415.03
2023-01-05T02:32:18.741Z,98405.44
2023-01-05T02:35:13.777Z,98415.28
2023-01-05T02:38:04.577Z,98418.72
2023-01-05T02:40:55.216Z,98421.59
2023-01-05T02:43:22.221Z,98415.03
2023-01-05T02:45:48.891Z,98431.00
2023-01-05T02:48:15.951Z,98432.03
2023-01-05T02:50:47.021Z,98429.78
2023-01-05T02:53:27.912Z,98435.28
2023-01-05T02:55:59.217Z,98441.81
2023-01-05T02:58:36.749Z,98435.91
2023-01-05T03:01:10.286Z,98444.91
2023-01-05T03:03:43.034Z,98445.38
2023-01-05T03:06:13.551Z,98443.50
2023-01-05T03:08:49.841Z,98449.22
2023-01-05T03:11:36.980Z,98450.03
2023-01-05T03:14:25.440Z,98453.28
2023-01-05T03:16:56.293Z,98437.56
2023-01-05T03:19:39.391Z,98459.84
2023-01-05T03:22:38.052Z,98454.75
2023-01-05T03:25:26.964Z,98446.84
2023-01-05T03:28:14.297Z,98456.25
2023-01-05T03:31:28.648Z,98457.66
2023-01-05T03:34:26.618Z,98450.31
2023-01-05T03:36:59.911Z,98467.53
2023-01-05T03:39:29.068Z,98467.13
2023-01-05T03:41:59.848Z,98480.63
2023-01-05T03:44:27.143Z,98485.56
2023-01-05T03:46:53.872Z,98481.47
2023-01-05T03:49:20.471Z,98490.09
2023-01-05T03:51:49.241Z,98489.47
2023-01-05T03:54:15.999Z,98491.94
2023-01-05T03:56:43.161Z,98489.69
2023-01-05T03:59:10.178Z,98497.06
2023-01-05T04:01:38.839Z,98509.75
2023-01-05T04:04:05.559Z,98506.50
2023-01-05T04:06:32.218Z,98508.13
2023-01-05T04:08:59.001Z,98513.03
2023-01-05T04:11:25.824Z,98520.81
2023-01-05T04:14:00.093Z,98526.91
2023-01-05T04:16:28.533Z,98525.69
2023-01-05T04:18:58.073Z,98536.97
2023-01-05T04:21:24.598Z,98542.47
2023-01-05T04:23:53.680Z,98537.56
2023-01-05T04:26:20.156Z,98537.56
2023-01-05T04:28:49.528Z,98535.53
2023-01-05T04:31:18.004Z,98543.28
2023-01-05T04:33:45.456Z,98537.38
2023-01-05T04:36:16.059Z,98545.34
2023-01-05T04:38:42.583Z,98548.00
2023-01-05T04:41:09.313Z,98559.25
2023-01-05T04:43:35.890Z,98532.66
2023-01-05T04:46:02.845Z,98551.06
2023-01-05T04:48:31.834Z,98557.63
2023-01-05T04:50:59.053Z,98550.25
2023-01-05T04:53:33.470Z,98560.88
2023-01-05T04:56:00.313Z,98553.50
2023-01-05T04:58:32.401Z,98559.22
2023-01-05T05:00:58.922Z,98561.06
2023-01-05T05:03:32.912Z,98559.06
2023-01-05T05:06:00.745Z,98553.09
2023-01-05T05:08:28.464Z,98561.28
2023-01-05T05:10:56.005Z,98570.28
2023-01-05T05:13:23.210Z,98563.94
2023-01-05T05:15:52.482Z,98582.16
2023-01-05T05:18:19.505Z,98581.56
2023-01-05T05:20:51.753Z,98585.44
2023-01-05T05:23:19.096Z,98584.00
2023-01-05T05:25:48.963Z,98573.75
2023-01-05T05:28:15.502Z,98591.97
2023-01-05T05:30:41.929Z,98587.28
2023-01-05T05:33:08.356Z,98590.75
2023-01-05T05:35:34.755Z,98594.66
2023-01-05T05:38:01.397Z,98599.34
2023-01-05T05:40:28.304Z,98618.56
2023-01-05T05:42:54.907Z,98613.25
2023-01-05T05:45:21.295Z,98624.72
2023-01-05T05:47:47.789Z,98615.91
2023-01-05T05:50:14.198Z,98622.69
2023-01-05T05:52:40.835Z,98615.09
2023-01-05T05:55:08.051Z,98627.56
2023-01-05T05:57:34.656Z,98621.84
2023-01-05T06:00:01.868Z,98631.25
2023-01-05T06:02:40.017Z,98627.38
2023-01-05T06:05:07.048Z,98627.59
2023-01-05T06:07:33.476Z,98642.31
2023-01-05T06:10:00.032Z,98644.78
2023-01-05T06:12:26.478Z,98645.78
2023-01-05T06:14:53.186Z,98648.44
2023-01-05T06:17:19.665Z,98655.59
2023-01-05T06:19:46.103Z,98648.84
2023-01-05T06:22:12.614Z,98644.34
2023-01-05T06:24:39.191Z,98644.56
2023-01-05T06:27:05.747Z,98650.88
2023-01-05T06:29:32.185Z,98650.69
2023-01-05T06:31:58.635Z,98649.25
2023-01-05T06:34:25.171Z,98656.81
2023-01-05T06:36:51.569Z,98660.31
2023-01-05T06:39:18.169Z,98665.59
2023-01-05T06:41:44.718Z,98661.09
2023-01-05T06:44:11.433Z,98662.75
2023-01-05T06:46:37.950Z,98662.97
2023-01-05T06:49:04.509Z,98656.38
2023-01-05T06:51:31.743Z,98664.19
2023-01-05T06:53:58.116Z,98675.66
2023-01-05T06:56:24.587Z,98663.78
2023-01-05T06:58:51.090Z,98665.63
2023-01-05T07:01:17.699Z,98672.59
2023-01-05T07:03:44.275Z,98668.91
2023-01-05T07:06:15.179Z,98676.03
2023-01-05T07:08:42.960Z,98669.91
2023-01-05T07:11:09.722Z,98678.09
2023-01-05T07:13:36.558Z,98677.47
2023-01-05T07:16:03.103Z,98676.69
2023-01-05T07:18:29.555Z,98686.91
2023-01-05T07:20:56.105Z,98678.31
2023-01-05T07:23:22.503Z,98685.69
2023-01-05T07:25:48.933Z,98691.81
2023-01-05T07:28:15.473Z,98691.22
2023-01-05T07:30:41.975Z,98689.78
2023-01-05T07:33:08.667Z,98677.13
2023-01-05T07:35:35.132Z,98693.47
2023-01-05T07:38:01.540Z,98691.00
2023-01-05T07:40:28.433Z,98692.03
2023-01-05T07:42:55.106Z,98695.75
2023-01-05T07:45:21.679Z,98685.09
2023-01-05T07:47:48.112Z,98697.56
2023-01-05T07:50:14.667Z,98682.63
2023-01-05T07:52:41.135Z,98692.25
2023-01-05T07:55:08.158Z,98707.00
2023-01-05T07:57:34.583Z,98696.75
2023-01-05T08:00:02.323Z,98710.25
2023-01-05T08:02:38.155Z,98715.59
2023-01-05T08:05:04.983Z,98709.44
2023-01-05T08:07:31.418Z,98719.47
2023-01-05T08:10:16.380Z,98721.72
2023-01-05T08:13:01.265Z,98719.06
2023-01-05T08:15:27.674Z,98740.97
2023-01-05T08:17:54.118Z,98744.66
2023-01-05T08:20:20.580Z,98752.22
2023-01-05T08:22:51.399Z,98739.75
2023-01-05T08:25:18.235Z,98736.97
2023-01-05T08:27:45.542Z,98739.00
2023-01-05T08:30:12.744Z,98746.88
2023-01-05T08:32:40.417Z,98751.91
2023-01-05T08:35:07.324Z,98761.19
2023-01-05T08:37:33.728Z,98750.66
2023-01-05T08:40:00.254Z,98754.06
2023-01-05T08:42:26.711Z,98759.13
2023-01-05T08:44:53.129Z,98753.38
2023-01-05T08:47:20.209Z,98760.06
2023-01-05T08:49:49.732Z,98756.03
2023-01-05T08:52:16.159Z,98761.28
2023-01-05T08:54:43.853Z,98762.69
2023-01-05T08:57:10.396Z,98757.25
2023-01-05T08:59:36.925Z,98761.81
2023-01-05T09:02:03.451Z,98757.78
2023-01-05T09:04:30.016Z,98762.72
2023-01-05T09:06:56.485Z,98756.81
2023-01-05T09:09:24.336Z,98764.78
2023-01-05T09:11:51.778Z,98770.56
2023-01-05T09:14:18.761Z,98770.16
2023-01-05T09:19:31.667Z,98784.50
2023-01-05T09:21:58.402Z,98769.75
2023-01-05T09:24:24.904Z,98785.94
2023-01-05T09:26:51.388Z,98790.88
2023-01-05T09:29:17.879Z,98787.16
2023-01-05T09:31:44.573Z,98787.38
2023-01-05T09:34:11.245Z,98805.41
2023-01-05T09:36:41.417Z,98801.94
2023-01-05T09:39:07.904Z,98803.34
2023-01-05T09:41:44.966Z,98808.47
2023-01-05T09:44:53.962Z,98805.41
2023-01-05T09:47:41.257Z,98819.75
2023-01-05T09:50:18.663Z,98819.53
2023-01-05T09:52:45.255Z,98814.00
2023-01-05T09:55:19.678Z,98818.94
2023-01-05T09:57:54.642Z,98823.22
2023-01-05T10:00:24.240Z,98813.19
2023-01-05T10:02:57.862Z,98820.16
2023-01-05T10:05:27.484Z,98818.31
2023-01-05T10:08:08.019Z,98806.22
2023-01-05T10:11:21.165Z,98818.50
2023-01-05T10:14:06.548Z,98808.88
2023-01-05T10:16:33.203Z,98807.03
2023-01-05T10:19:01.560Z,98806.22
2023-01-05T10:21:35.056Z,98808.88
2023-01-05T10:24:19.242Z,98801.50
2023-01-05T10:27:24.798Z,98810.31
2023-01-05T10:30:17.651Z,98806.66
2023-01-05T10:33:25.816Z,98815.25
2023-01-05T10:36:10.407Z,98806.66
2023-01-05T10:39:06.943Z,98809.91
2023-01-05T10:41:42.202Z,98814.00
2023-01-05T10:44:34.632Z,98814.84
2023-01-05T10:47:01.866Z,98823.00
2023-01-05T10:49:31.192Z,98826.72
2023-01-05T10:52:00.149Z,98818.94
2023-01-05T10:54:43.183Z,98816.06
2023-01-05T10:57:34.060Z,98821.59
2023-01-05T11:00:12.218Z,98822.63
2023-01-05T11:02:42.812Z,98825.69
2023-01-05T11:05:09.953Z,98816.06
2023-01-05T11:07:54.952Z,98816.88
2023-01-05T11:10:25.885Z,98829.59
2023-01-05T11:13:02.307Z,98825.47
2023-01-05T11:15:31.834Z,98819.75
2023-01-05T11:17:58.693Z,98820.16
2023-01-05T11:20:29.047Z,98807.88
2023-01-05T11:22:55.577Z,98820.16
2023-01-05T11:25:29.744Z,98814.81
2023-01-05T11:28:09.336Z,98814.84
2023-01-05T11:30:36.815Z,98809.31
2023-01-05T11:33:03.686Z,98800.88
2023-01-05T11:35:37.672Z,98801.28
2023-01-05T11:38:04.525Z,98804.75
2023-01-05T11:40:34.374Z,98811.72
2023-01-05T11:43:09.250Z,98807.41
2023-01-05T11:45:45.202Z,98809.47
2023-01-05T11:48:19.469Z,98807.19
2023-01-05T11:50:49.278Z,98783.63
2023-01-05T11:53:25.139Z,98802.47
2023-01-05T11:56:23.706Z,98789.75
2023-01-05T11:58:54.700Z,98804.13
2023-01-05T12:01:57.372Z,98809.88
2023-01-05T12:04:45.119Z,98818.50
2023-01-05T12:07:23.094Z,98823.41
2023-01-05T12:10:17.720Z,98815.44
2023-01-05T12:13:24.568Z,98821.38
2023-01-05T12:16:16.233Z,98818.28
2023-01-05T12:19:07.704Z,98822.38
2023-01-05T12:22:02.148Z,98818.88
2023-01-05T12:24:36.882Z,98823.81
2023-01-05T12:27:19.794Z,98823.38
2023-01-05T12:35:54.569Z,98819.06
2023-01-05T12:38:36.654Z,98819.28
2023-01-05T12:41:16.788Z,98825.66
2023-01-05T12:44:25.346Z,98826.44
2023-01-05T12:47:16.649Z,98835.91
2023-01-05T12:49:52.703Z,98836.75
2023-01-05T12:52:36.178Z,98833.06
2023-01-05T12:55:13.020Z,98836.53
2023-01-05T12:57:45.452Z,98843.09
2023-01-05T13:00:18.858Z,98843.31
2023-01-05T13:03:01.176Z,98841.88
2023-01-05T13:05:34.426Z,98840.84
2023-01-05T13:08:42.133Z,98840.44
2023-01-05T13:11:33.882Z,98838.19
2023-01-05T13:14:05.842Z,98842.28
2023-01-05T13:16:45.362Z,98850.28
2023-01-05T13:19:28.323Z,98851.31
2023-01-05T13:21:57.372Z,98834.50
2023-01-05T13:24:35.146Z,98859.91
2023-01-05T13:27:02.913Z,98852.13
2023-01-05T13:29:36.952Z,98857.47
2023-01-05T13:32:12.515Z,98852.13
2023-01-05T13:35:08.848Z,98855.41
2023-01-05T13:38:14.532Z,98852.09
2023-01-05T13:40:53.123Z,98854.16
2023-01-05T13:43:50.706Z,98858.66
2023-01-05T13:46:41.983Z,98857.25
2023-01-05T13:49:22.310Z,98844.75
2023-01-05T13:51:54.608Z,98840.44
2023-01-05T13:54:49.472Z,98833.25
2023-01-05T13:57:24.770Z,98811.94
2023-01-05T14:00:06.827Z,98823.00
2023-01-05T14:02:43.616Z,98830.81
2023-01-05T14:05:31.762Z,98837.34
2023-01-05T14:08:02.439Z,98840.63
2023-01-05T14:10:32.287Z,98848.44
2023-01-05T14:13:00.203Z,98846.16
2023-01-05T14:15:35.420Z,98862.59
2023-01-05T14:18:04.162Z,98854.59
2023-01-05T14:20:33.646Z,98857.84
2023-01-05T14:23:01.769Z,98848.00
2023-01-05T14:25:40.182Z,98853.34
2023-01-05T14:28:28.421Z,98852.72
2023-01-05T14:31:16.831Z,98843.09
2023-01-05T14:33:58.416Z,98851.09
2023-01-05T14:36:31.409Z,98838.59
2023-01-05T14:38:59.845Z,98849.84
2023-01-05T14:41:29.038Z,98845.53
2023-01-05T14:44:01.497Z,98854.16
2023-01-05T14:46:42.000Z,98845.56
2023-01-05T14:49:16.728Z,98853.75
2023-01-05T14:51:54.116Z,98861.13
2023-01-05T14:54:40.978Z,98855.59
2023-01-05T14:57:36.397Z,98855.81
2023-01-05T15:00:15.431Z,98870.78
2023-01-05T15:03:09.764Z,98868.50
2023-01-05T15:05:46.618Z,98879.41
2023-01-05T15:08:24.851Z,98878.38
2023-01-05T15:11:04.205Z,98834.50
2023-01-05T15:14:07.413Z,98881.03
2023-01-05T15:16:58.706Z,98863.41
2023-01-05T15:19:31.183Z,98866.09
2023-01-05T15:22:18.635Z,98868.53
2023-01-05T15:24:58.231Z,98866.47
2023-01-05T15:28:02.320Z,98864.44
2023-01-05T15:30:52.111Z,98865.03
2023-01-05T15:33:35.902Z,98869.53
2023-01-05T15:36:05.177Z,98874.47
2023-01-05T15:38:42.927Z,98866.69
2023-01-05T15:41:11.944Z,98853.97
2023-01-05T15:43:41.106Z,98865.06
2023-01-05T15:46:10.150Z,98870.97
2023-01-05T15:48:45.515Z,98865.03
2023-01-05T15:51:23.390Z,98858.28
2023-01-05T15:53:55.784Z,98861.13
2023-01-05T15:56:39.570Z,98859.91
2023-01-05T15:59:22.105Z,98860.53
2023-01-05T16:01:48.545Z,98863.81
2023-01-05T16:04:15.435Z,98868.09
2023-01-05T16:06:46.275Z,98864.63
2023-01-05T16:09:38.507Z,98869.53
2023-01-05T16:12:23.330Z,98872.59
2023-01-05T16:15:01.489Z,98864.41
2023-01-05T16:17:31.221Z,98870.53
2023-01-05T16:20:09.357Z,98868.69
2023-01-05T16:23:00.981Z,98873.00
2023-01-05T16:25:30.605Z,98873.41
2023-01-05T16:28:07.171Z,98873.41
2023-01-05T16:30:38.046Z,98878.50
2023-01-05T16:33:13.475Z,98877.50
2023-01-05T16:35:48.099Z,98879.13
2023-01-05T16:38:20.530Z,98870.53
2023-01-05T16:40:46.916Z,98860.69
2023-01-05T16:43:34.544Z,98867.47
2023-01-05T16:46:18.900Z,98861.91
2023-01-05T16:48:49.334Z,98826.19
2023-01-05T16:51:21.841Z,98859.88
2023-01-05T16:54:04.431Z,98862.53
2023-01-05T16:56:33.744Z,98867.03
2023-01-05T16:59:02.280Z,98867.03
2023-01-05T17:01:41.844Z,98867.47
2023-01-05T17:04:15.948Z,98867.03
2023-01-05T17:06:48.024Z,98873.34
2023-01-05T17:09:25.438Z,98868.00
2023-01-05T17:11:52.083Z,98874.56
2023-01-05T17:14:20.181Z,98869.63
2023-01-05T17:16:47.612Z,98869.22
2023-01-05T17:19:16.325Z,98871.88
2023-01-05T17:21:53.660Z,98872.06
2023-01-05T17:24:20.255Z,98872.50
2023-01-05T17:26:46.912Z,98868.38
2023-01-05T17:29:27.730Z,98877.00
2023-01-05T17:31:54.893Z,98868.19
2023-01-05T17:34:22.151Z,98871.22
2023-01-05T17:36:49.991Z,98864.47
2023-01-05T17:39:18.854Z,98876.16
2023-01-05T17:41:45.531Z,98871.00
2023-01-05T17:44:12.161Z,98867.34
2023-01-05T17:46:41.801Z,98863.69
2023-01-05T17:49:20.969Z,98871.84
2023-01-05T17:51:47.791Z,98868.38
2023-01-05T17:54:14.363Z,98870.63
2023-01-05T17:56:40.788Z,98868.38
2023-01-05T17:59:07.248Z,98868.38
2023-01-05T18:01:33.990Z,98865.50
2023-01-05T18:04:01.181Z,98859.75
2023-01-05T18:06:28.204Z,98857.75
2023-01-05T18:08:54.931Z,98845.44
2023-01-05T18:11:21.556Z,98854.88
2023-01-05T18:13:48.042Z,98852.59
2023-01-05T18:16:15.406Z,98838.84
2023-01-05T18:18:41.882Z,98852.81
2023-01-05T18:21:08.322Z,98855.66
2023-01-05T18:23:35.114Z,98857.06
2023-01-05T18:26:07.101Z,98863.25
2023-01-05T18:28:37.383Z,98865.69
2023-01-05T18:31:15.444Z,98869.56
2023-01-05T18:33:42.063Z,98867.50
2023-01-05T18:36:12.775Z,98869.97
2023-01-05T18:38:40.116Z,98862.19
2023-01-05T18:41:06.863Z,98850.63
2023-01-05T18:43:34.017Z,98848.44
2023-01-05T18:46:01.100Z,98852.97
2023-01-05T18:48:27.529Z,98851.59
2023-01-05T18:50:54.128Z,98852.69
2023-01-05T18:53:21.668Z,98851.41
2023-01-05T18:55:48.948Z,98847.06
2023-01-05T18:58:15.613Z,98849.25
2023-01-05T19:00:43.720Z,98849.78
2023-01-05T19:03:10.781Z,98853.69
2023-01-05T19:05:41.968Z,98842.50
2023-01-05T19:08:09.871Z,98843.41
2023-01-05T19:10:37.277Z,98853.69
2023-01-05T19:13:04.438Z,98842.97
2023-01-05T19:15:33.550Z,98836.44
2023-01-05T19:18:00.295Z,98833.59
2023-01-05T19:20:26.767Z,98841.44
2023-01-05T19:22:53.231Z,98820.94
2023-01-05T19:25:19.883Z,98838.59
2023-01-05T19:27:46.472Z,98836.97
2023-01-05T19:30:14.909Z,98840.84
2023-01-05T19:32:41.367Z,98846.38
2023-01-05T19:35:07.962Z,98839.19
2023-01-05T19:37:35.520Z,98831.44
2023-01-05T19:40:02.672Z,98839.22
2023-01-05T19:42:30.706Z,98838.19
2023-01-05T19:44:57.324Z,98838.81
2023-01-05T19:47:23.753Z,98836.75
2023-01-05T19:49:50.192Z,98829.78
2023-01-05T19:52:16.670Z,98831.00
2023-01-05T19:54:43.169Z,98820.97
2023-01-05T19:57:09.655Z,98839.59
2023-01-05T19:59:36.279Z,98828.34
2023-01-05T20:02:04.838Z,98821.75
2023-01-05T20:04:32.253Z,98827.53
2023-01-05T20:06:59.250Z,98820.97
2023-01-05T20:09:25.864Z,98817.06
2023-01-05T20:11:59.542Z,98814.59
2023-01-05T20:14:32.885Z,98823.03
2023-01-05T20:17:02.449Z,98816.25
2023-01-05T20:19:31.261Z,98815.22
2023-01-05T20:21:59.239Z,98808.28
2023-01-05T20:24:30.110Z,98811.94
2023-01-05T20:26:59.986Z,98808.66
2023-01-05T20:29:27.431Z,98813.78
2023-01-05T20:32:01.559Z,98804.16
2023-01-05T20:34:32.101Z,98806.63
2023-01-05T20:36:59.668Z,98810.50
2023-01-05T20:39:26.111Z,98799.84
2023-01-05T20:41:53.960Z,98806.22
2023-01-05T20:44:23.684Z,98799.06
2023-01-05T20:46:53.784Z,98793.69
2023-01-05T20:49:21.812Z,98797.63
2023-01-05T20:51:48.616Z,98799.44
2023-01-05T20:54:15.174Z,98804.56
2023-01-05T20:56:43.695Z,98804.97
2023-01-05T20:59:19.527Z,98808.28
2023-01-05T21:01:46.751Z,98806.38
2023-01-05T21:04:13.723Z,98810.09
2023-01-05T21:06:41.543Z,98814.81
2023-01-05T21:09:08.609Z,98811.31
2023-01-05T21:11:36.078Z,98810.50
2023-01-05T21:14:03.909Z,98798.00
2023-01-05T21:16:34.596Z,98814.41
2023-01-05T21:19:01.967Z,98813.38
2023-01-05T21:21:29.544Z,98796.59
2023-01-05T21:23:56.286Z,98805.81
2023-01-05T21:26:23.489Z,98804.97
2023-01-05T21:28:51.865Z,98803.75
2023-01-05T21:31:22.784Z,98795.97
2023-01-05T21:33:49.779Z,98805.78
2023-01-05T21:36:22.619Z,98796.38
2023-01-05T21:39:01.602Z,98803.78
2023-01-05T21:41:49.828Z,98806.00
2023-01-05T21:44:16.983Z,98800.91
2023-01-05T21:46:44.243Z,98789.84
2023-01-05T21:49:12.005Z,98793.72
2023-01-05T21:51:57.848Z,98789.41
2023-01-05T21:54:43.829Z,98781.84
2023-01-05T21:57:11.021Z,98783.28
2023-01-05T21:59:38.892Z,98780.81
2023-01-05T22:02:05.443Z,98762.78
2023-01-05T22:04:32.001Z,98768.53
2023-01-05T22:06:59.453Z,98774.25
2023-01-05T22:09:26.003Z,98774.66
2023-01-05T22:11:52.494Z,98778.34
2023-01-05T22:14:18.923Z,98764.84
2023-01-05T22:16:45.322Z,98763.78
2023-01-05T22:19:12.007Z,98760.09
2023-01-05T22:21:38.691Z,98763.19
2023-01-05T22:24:06.424Z,98759.50
2023-01-05T22:26:32.945Z,98760.31
2023-01-05T22:28:59.409Z,98758.06
2023-01-05T22:31:29.551Z,98761.56
2023-01-05T22:33:58.434Z,98761.75
2023-01-05T22:36:26.714Z,98750.91
2023-01-05T22:38:54.093Z,98736.53
2023-01-05T22:41:26.732Z,98752.94
2023-01-05T22:43:53.542Z,98758.28
2023-01-05T22:46:26.247Z,98752.94
2023-01-05T22:48:54.641Z,98757.03
2023-01-05T22:51:24.323Z,98748.41
2023-01-05T22:53:51.294Z,98746.38
2023-01-05T22:56:19.984Z,98753.94
2023-01-05T22:58:46.774Z,98748.00
2023-01-05T23:01:18.584Z,98746.38
2023-01-05T23:03:45.292Z,98744.72
2023-01-05T23:06:12.217Z,98749.03
2023-01-05T23:08:40.546Z,98741.44
2023-01-05T23:11:10.866Z,98743.91
2023-01-05T23:13:37.946Z,98745.13
2023-01-05T23:16:05.459Z,98731.38
2023-01-05T23:18:33.852Z,98732.81
2023-01-05T23:21:02.869Z,98732.81
2023-01-05T23:23:31.120Z,98716.22
2023-01-05T23:25:57.588Z,98725.00
2023-01-05T23:28:26.201Z,98724.41
2023-01-05T23:30:54.566Z,98728.72
2023-01-05T23:33:25.215Z,98680.19
2023-01-05T23:35:53.331Z,98726.50
2023-01-05T23:38:20.268Z,98711.34
2023-01-05T23:40:49.521Z,98716.47
2023-01-05T23:43:18.926Z,98716.88
2023-01-05T23:45:45.993Z,98713.97
2023-01-05T23:48:12.951Z,98702.72
2023-01-05T23:50:43.690Z,98716.44
2023-01-05T23:53:11.377Z,98702.28
2023-01-05T23:55:38.707Z,98704.97
2023-01-05T23:58:05.911Z,98696.34
